createdAt,value
2023-05-14T00:01:39.310Z,98191.72
2023-05-14T00:04:42.545Z,98193.75
2023-05-14T00:07:47.563Z,98184.41
2023-05-14T00:10:51.008Z,98170.72
2023-05-14T00:13:54.516Z,98174.16
2023-05-14T00:16:58.229Z,98169.81
2023-05-14T00:20:01.322Z,98168.22
2023-05-14T00:23:06.609Z,98160.97
2023-05-14T00:26:09.726Z,98155.25
2023-05-14T00:29:13.581Z,98155.91
2023-05-14T00:32:16.925Z,98155.06
2023-05-14T00:35:21.337Z,98154.16
2023-05-14T00:38:27.732Z,98148.50
2023-05-14T00:41:30.840Z,98144.31
2023-05-14T00:44:34.040Z,98152.34
2023-05-14T00:47:39.227Z,98154.91
2023-05-14T00:50:43.907Z,98142.63
2023-05-14T00:53:48.782Z,98146.28
2023-05-14T00:56:52.489Z,98142.91
2023-05-14T00:59:56.365Z,98137.88
2023-05-14T01:03:01.482Z,98145.81
2023-05-14T01:06:13.292Z,98148.69
2023-05-14T01:09:23.246Z,98149.47
2023-05-14T01:12:34.519Z,98150.59
2023-05-14T01:15:41.322Z,98153.84
2023-05-14T01:18:47.171Z,98158.03
2023-05-14T01:21:51.792Z,98150.56
2023-05-14T01:24:54.965Z,98159.81
2023-05-14T01:28:04.912Z,98163.47
2023-05-14T01:31:17.389Z,98159.47
2023-05-14T01:34:23.294Z,98157.69
2023-05-14T01:37:30.056Z,98154.53
2023-05-14T01:40:34.691Z,98134.53
2023-05-14T01:43:39.357Z,98150.94
2023-05-14T01:46:42.583Z,98151.69
2023-05-14T01:49:45.814Z,98095.47
2023-05-14T01:52:53.185Z,98148.00
2023-05-14T01:55:57.381Z,98155.50
2023-05-14T01:59:00.476Z,98143.56
2023-05-14T02:02:03.659Z,98147.53
2023-05-14T02:05:07.676Z,98145.06
2023-05-14T02:08:12.177Z,98143.06
2023-05-14T02:11:15.441Z,98138.03
2023-05-14T02:14:18.654Z,98140.75
2023-05-14T02:17:22.065Z,98140.25
2023-05-14T02:20:25.457Z,98132.66
2023-05-14T02:23:40.549Z,98134.63
2023-05-14T02:26:44.631Z,98131.44
2023-05-14T02:29:47.864Z,98126.47
2023-05-14T02:32:51.578Z,98126.28
2023-05-14T02:35:54.987Z,98123.31
2023-05-14T02:39:00.875Z,98127.84
2023-05-14T02:42:04.059Z,98128.56
2023-05-14T02:45:08.139Z,98121.66
2023-05-14T02:48:11.328Z,98125.25
2023-05-14T02:51:14.407Z,98121.66
2023-05-14T02:54:18.888Z,98126.41
2023-05-14T02:57:22.395Z,98121.84
2023-05-14T03:00:25.836Z,98125.28
2023-05-14T03:03:30.464Z,98102.22
2023-05-14T03:06:33.920Z,98123.06
2023-05-14T03:09:38.595Z,98118.28
2023-05-14T03:12:41.882Z,98121.41
2023-05-14T03:15:45.254Z,98127.25
2023-05-14T03:18:48.754Z,98121.25
2023-05-14T03:21:52.034Z,98123.91
2023-05-14T03:24:56.578Z,98120.50
2023-05-14T03:27:59.698Z,98120.41
2023-05-14T03:34:39.965Z,98120.41
2023-05-14T03:37:43.615Z,98118.72
2023-05-14T03:40:47.155Z,98120.28
2023-05-14T03:43:50.325Z,98118.63
2023-05-14T03:46:53.404Z,98115.25
2023-05-14T03:49:58.242Z,98117.38
2023-05-14T03:53:01.435Z,98119.97
2023-05-14T03:56:06.462Z,98115.72
2023-05-14T03:59:10.238Z,98118.09
2023-05-14T04:02:13.592Z,98129.28
2023-05-14T04:05:18.078Z,98123.84
2023-05-14T04:08:21.993Z,98128.03
2023-05-14T04:11:26.150Z,98127.00
2023-05-14T04:14:29.315Z,98122.53
2023-05-14T04:17:34.511Z,98130.97
2023-05-14T04:20:40.464Z,98129.09
2023-05-14T04:23:43.567Z,98134.84
2023-05-14T04:26:46.722Z,98125.09
2023-05-14T04:29:49.898Z,98116.09
2023-05-14T04:32:53.240Z,98119.72
2023-05-14T04:35:57.768Z,98122.31
2023-05-14T04:39:00.897Z,98122.59
2023-05-14T04:42:04.114Z,98117.41
2023-05-14T04:45:08.753Z,98110.75
2023-05-14T04:48:12.195Z,98118.16
2023-05-14T04:51:16.802Z,98113.50
2023-05-14T04:54:19.947Z,98117.31
2023-05-14T04:57:23.249Z,98117.31
2023-05-14T05:00:27.118Z,98115.31
2023-05-14T05:03:31.139Z,98111.38
2023-05-14T05:06:35.603Z,98111.88
2023-05-14T05:09:38.748Z,98111.81
2023-05-14T05:12:42.240Z,98096.00
2023-05-14T05:15:45.832Z,98086.13
2023-05-14T05:18:49.122Z,98091.34
2023-05-14T05:21:53.754Z,98067.34
2023-05-14T05:24:56.908Z,98061.91
2023-05-14T05:28:00.023Z,98054.13
2023-05-14T05:31:03.215Z,98049.97
2023-05-14T05:34:06.501Z,98053.75
2023-05-14T05:37:12.747Z,98049.84
2023-05-14T05:40:15.952Z,98042.97
2023-05-14T05:43:19.380Z,98043.41
2023-05-14T05:46:22.595Z,98054.59
2023-05-14T05:49:26.037Z,98048.81
2023-05-14T05:52:30.689Z,98047.41
2023-05-14T05:55:33.848Z,98046.44
2023-05-14T05:58:37.095Z,98021.22
2023-05-14T06:01:40.729Z,98046.66
2023-05-14T06:04:43.869Z,98039.63
2023-05-14T06:07:48.648Z,98034.81
2023-05-14T06:10:51.925Z,98043.25
2023-05-14T06:13:55.222Z,98041.19
2023-05-14T06:16:58.690Z,98037.91
2023-05-14T06:20:02.022Z,98044.97
2023-05-14T06:23:07.741Z,98049.56
2023-05-14T06:26:10.895Z,98058.38
2023-05-14T06:29:14.099Z,98049.97
2023-05-14T06:32:17.583Z,98051.00
2023-05-14T06:35:20.867Z,98047.50
2023-05-14T06:38:25.703Z,98040.66
2023-05-14T06:41:29.580Z,98049.56
2023-05-14T06:44:33.064Z,98060.16
2023-05-14T06:47:36.316Z,98044.78
2023-05-14T06:50:39.465Z,98045.09
2023-05-14T06:53:43.979Z,98041.22
2023-05-14T06:56:47.186Z,98043.84
2023-05-14T06:59:50.392Z,98045.81
2023-05-14T07:02:53.719Z,98043.22
2023-05-14T07:05:56.956Z,98048.81
2023-05-14T07:09:02.974Z,98050.91
2023-05-14T07:12:07.196Z,98044.13
2023-05-14T07:15:11.893Z,98047.16
2023-05-14T07:18:15.116Z,98044.47
2023-05-14T07:21:18.377Z,98044.28
2023-05-14T07:24:23.518Z,98035.00
2023-05-14T07:27:26.672Z,98038.03
2023-05-14T07:30:29.769Z,98039.59
2023-05-14T07:33:33.044Z,98035.22
2023-05-14T07:36:36.208Z,98024.44
2023-05-14T07:39:41.671Z,98023.19
2023-05-14T07:42:44.786Z,98025.16
2023-05-14T07:45:48.012Z,98016.66
2023-05-14T07:48:51.257Z,98025.38
2023-05-14T07:51:54.460Z,98020.66
2023-05-14T07:54:59.939Z,98014.16
2023-05-14T07:58:03.284Z,98006.50
2023-05-14T08:01:09.074Z,98013.59
2023-05-14T08:04:12.620Z,98012.34
2023-05-14T08:07:15.832Z,98009.28
2023-05-14T08:10:20.491Z,98026.63
2023-05-14T08:13:23.980Z,98017.09
2023-05-14T08:16:27.328Z,98009.91
2023-05-14T08:19:30.541Z,98011.06
2023-05-14T08:22:33.794Z,98004.47
2023-05-14T08:25:38.341Z,98007.31
2023-05-14T08:28:41.498Z,98009.91
2023-05-14T08:31:44.781Z,98006.97
2023-05-14T08:34:47.932Z,98004.06
2023-05-14T08:37:52.163Z,97995.03
2023-05-14T08:40:58.917Z,97995.16
2023-05-14T08:44:09.201Z,97995.38
2023-05-14T08:47:13.436Z,97989.09
2023-05-14T08:50:17.053Z,97984.53
2023-05-14T08:53:20.205Z,97990.28
2023-05-14T08:56:26.561Z,97993.13
2023-05-14T08:59:29.716Z,97983.81
2023-05-14T09:02:33.435Z,97983.06
2023-05-14T09:05:36.972Z,97988.66
2023-05-14T09:08:40.174Z,97981.38
2023-05-14T09:11:47.830Z,97985.94
2023-05-14T09:14:51.644Z,97981.38
2023-05-14T09:17:55.042Z,97984.94
2023-05-14T09:20:58.813Z,97986.13
2023-05-14T09:24:02.369Z,97964.66
2023-05-14T09:27:08.039Z,97978.34
2023-05-14T09:30:12.808Z,97941.97
2023-05-14T09:34:39.539Z,97964.75
2023-05-14T09:37:43.768Z,97969.03
2023-05-14T09:40:47.510Z,97943.28
2023-05-14T09:43:52.344Z,97954.97
2023-05-14T09:46:55.966Z,97955.50
2023-05-14T09:50:00.671Z,97955.50
2023-05-14T09:53:04.116Z,97947.63
2023-05-14T09:56:07.331Z,97953.09
2023-05-14T09:59:10.952Z,97939.00
2023-05-14T10:02:22.748Z,97948.75
2023-05-14T10:05:28.790Z,97947.28
2023-05-14T10:08:35.654Z,97929.31
2023-05-14T10:11:43.311Z,97929.97
2023-05-14T10:14:53.182Z,97934.25
2023-05-14T10:17:59.771Z,97932.81
2023-05-14T10:21:06.530Z,97927.59
2023-05-14T10:24:11.001Z,97926.28
2023-05-14T10:27:15.270Z,97924.66
2023-05-14T10:30:22.914Z,97925.84
2023-05-14T10:33:26.276Z,97919.63
2023-05-14T10:36:31.275Z,97916.69
2023-05-14T10:39:48.365Z,97912.28
2023-05-14T10:42:51.810Z,97904.19
2023-05-14T10:45:55.207Z,97898.72
2023-05-14T10:48:58.456Z,97888.78
2023-05-14T10:52:09.300Z,97897.97
2023-05-14T10:55:15.391Z,97900.09
2023-05-14T10:58:19.086Z,97896.91
2023-05-14T11:01:25.214Z,97888.09
2023-05-14T11:04:29.218Z,97891.34
2023-05-14T11:07:35.439Z,97889.38
2023-05-14T11:10:40.338Z,97883.16
2023-05-14T11:13:43.863Z,97884.59
2023-05-14T11:16:48.143Z,97876.25
2023-05-14T11:19:51.398Z,97870.09
2023-05-14T11:22:55.888Z,97865.00
2023-05-14T11:25:59.050Z,97872.81
2023-05-14T11:29:02.380Z,97867.53
2023-05-14T11:32:07.545Z,97869.56
2023-05-14T11:35:11.101Z,97866.97
2023-05-14T11:38:20.220Z,97870.47
2023-05-14T11:41:23.792Z,97871.69
2023-05-14T11:44:27.173Z,97866.94
2023-05-14T11:47:31.500Z,97836.56
2023-05-14T11:50:37.497Z,97848.13
2023-05-14T11:53:42.112Z,97850.88
2023-05-14T11:56:51.952Z,97853.25
2023-05-14T11:59:57.895Z,97843.09
2023-05-14T12:03:01.523Z,97856.97
2023-05-14T12:06:08.298Z,97849.66
2023-05-14T12:09:17.496Z,97851.53
2023-05-14T12:12:21.990Z,97842.25
2023-05-14T12:15:26.709Z,97840.97
2023-05-14T12:18:31.841Z,97849.13
2023-05-14T12:21:36.515Z,97834.84
2023-05-14T12:24:41.206Z,97835.41
2023-05-14T12:27:46.078Z,97830.34
2023-05-14T12:30:56.891Z,97828.72
2023-05-14T12:34:00.869Z,97825.44
2023-05-14T12:37:04.959Z,97822.66
2023-05-14T12:40:10.366Z,97820.88
2023-05-14T12:43:13.563Z,97820.41
2023-05-14T12:46:17.017Z,97815.56
2023-05-14T12:49:20.605Z,97819.53
2023-05-14T12:52:36.796Z,97809.22
2023-05-14T12:55:42.869Z,97808.78
2023-05-14T12:58:46.637Z,97806.63
2023-05-14T13:01:50.075Z,97805.34
2023-05-14T13:04:53.205Z,97803.06
2023-05-14T13:08:00.641Z,97793.75
2023-05-14T13:11:05.229Z,97796.63
2023-05-14T13:14:10.466Z,97798.69
2023-05-14T13:17:13.926Z,97789.75
2023-05-14T13:20:17.792Z,97789.03
2023-05-14T13:23:20.928Z,97780.22
2023-05-14T13:26:28.162Z,97782.22
2023-05-14T13:29:31.574Z,97768.56
2023-05-14T13:32:34.759Z,97764.41
2023-05-14T13:35:38.068Z,97762.25
2023-05-14T13:38:41.261Z,97747.25
2023-05-14T13:41:45.700Z,97765.34
2023-05-14T13:44:48.990Z,97761.78
2023-05-14T13:47:52.179Z,97741.66
2023-05-14T13:50:55.436Z,97743.31
2023-05-14T13:53:58.942Z,97742.03
2023-05-14T13:57:03.350Z,97733.13
2023-05-14T14:00:07.970Z,97739.75
2023-05-14T14:03:11.389Z,97732.53
2023-05-14T14:06:14.606Z,97738.84
2023-05-14T14:09:17.740Z,97730.06
2023-05-14T14:12:22.478Z,97728.63
2023-05-14T14:15:25.870Z,97721.22
2023-05-14T14:18:29.205Z,97726.34
2023-05-14T14:21:32.733Z,97726.28
2023-05-14T14:24:35.957Z,97722.13
2023-05-14T14:27:40.926Z,97698.47
2023-05-14T14:30:44.673Z,97708.66
2023-05-14T14:33:48.167Z,97710.41
2023-05-14T14:36:51.410Z,97701.78
2023-05-14T14:39:54.928Z,97696.81
2023-05-14T14:42:59.403Z,97699.09
2023-05-14T14:46:02.744Z,97699.69
2023-05-14T14:49:06.016Z,97696.16
2023-05-14T14:52:09.909Z,97692.84
2023-05-14T14:55:13.069Z,97689.91
2023-05-14T14:58:19.082Z,97691.63
2023-05-14T15:01:22.840Z,97682.53
2023-05-14T15:04:26.029Z,97678.94
2023-05-14T15:07:32.752Z,97675.50
2023-05-14T15:10:37.797Z,97678.94
2023-05-14T15:13:43.003Z,97681.34
2023-05-14T15:16:46.774Z,97682.50
2023-05-14T15:19:51.482Z,97681.06
2023-05-14T15:22:55.108Z,97683.94
2023-05-14T15:25:58.280Z,97683.59
2023-05-14T15:29:04.564Z,97682.88
2023-05-14T15:34:39.426Z,97683.25
2023-05-14T15:37:43.727Z,97673.06
2023-05-14T15:40:46.876Z,97668.03
2023-05-14T15:43:50.609Z,97677.69
2023-05-14T15:46:53.952Z,97673.16
2023-05-14T15:49:58.559Z,97681.59
2023-05-14T15:53:01.883Z,97677.66
2023-05-14T15:56:05.326Z,97672.31
2023-05-14T15:59:10.606Z,97673.97
2023-05-14T16:02:14.442Z,97648.53
2023-05-14T16:05:19.010Z,97683.50
2023-05-14T16:08:22.179Z,97677.47
2023-05-14T16:11:25.452Z,97668.03
2023-05-14T16:14:28.589Z,97669.09
2023-05-14T16:17:32.695Z,97677.28
2023-05-14T16:20:37.318Z,97672.53
2023-05-14T16:23:40.493Z,97669.59
2023-05-14T16:26:43.623Z,97675.47
2023-05-14T16:29:46.791Z,97677.31
2023-05-14T16:32:50.198Z,97681.44
2023-05-14T16:35:54.957Z,97674.53
2023-05-14T16:39:07.130Z,97678.97
2023-05-14T16:42:10.717Z,97677.06
2023-05-14T16:45:13.884Z,97679.00
2023-05-14T16:48:17.128Z,97680.06
2023-05-14T16:51:21.625Z,97676.16
2023-05-14T16:54:24.888Z,97671.72
2023-05-14T16:57:28.012Z,97673.75
2023-05-14T17:00:31.565Z,97675.06
2023-05-14T17:03:34.750Z,97669.00
2023-05-14T17:06:39.272Z,97657.09
2023-05-14T17:09:42.839Z,97631.91
2023-05-14T17:12:46.139Z,97663.28
2023-05-14T17:15:49.261Z,97668.75
2023-05-14T17:18:53.024Z,97662.44
2023-05-14T17:21:57.958Z,97657.91
2023-05-14T17:25:01.579Z,97667.06
2023-05-14T17:28:05.544Z,97670.66
2023-05-14T17:31:08.707Z,97669.06
2023-05-14T17:34:11.854Z,97668.97
2023-05-14T17:37:16.616Z,97669.06
2023-05-14T17:40:19.735Z,97665.81
2023-05-14T17:43:22.996Z,97661.88
2023-05-14T17:46:29.097Z,97657.03
2023-05-14T17:49:32.315Z,97663.91
2023-05-14T17:52:37.685Z,97664.25
2023-05-14T17:55:43.520Z,97663.06
2023-05-14T17:58:47.741Z,97659.47
2023-05-14T18:01:50.842Z,97663.22
2023-05-14T18:04:54.042Z,97661.78
2023-05-14T18:07:59.097Z,97665.72
2023-05-14T18:11:02.210Z,97665.69
2023-05-14T18:14:10.326Z,97669.31
2023-05-14T18:17:13.693Z,97674.91
2023-05-14T18:20:16.885Z,97674.06
2023-05-14T18:23:21.429Z,97674.84
2023-05-14T18:26:24.600Z,97606.50
2023-05-14T18:29:27.858Z,97688.44
2023-05-14T18:32:31.753Z,97690.00
2023-05-14T18:35:35.190Z,97696.56
2023-05-14T18:38:40.722Z,97700.16
2023-05-14T18:41:43.810Z,97702.34
2023-05-14T18:44:46.958Z,97709.75
2023-05-14T18:47:50.706Z,97681.19
2023-05-14T18:50:53.891Z,97703.50
2023-05-14T18:53:58.958Z,97706.03
2023-05-14T18:57:02.647Z,97710.59
2023-05-14T19:00:06.964Z,97711.44
2023-05-14T19:03:10.299Z,97709.13
2023-05-14T19:06:13.568Z,97715.50
2023-05-14T19:09:21.034Z,97712.06
2023-05-14T19:12:24.279Z,97723.63
2023-05-14T19:15:27.590Z,97712.66
2023-05-14T19:18:30.887Z,97719.25
2023-05-14T19:21:34.030Z,97719.31
2023-05-14T19:24:38.742Z,97722.22
2023-05-14T19:27:41.979Z,97724.72
2023-05-14T19:30:45.099Z,97726.91
2023-05-14T19:33:48.418Z,97732.34
2023-05-14T19:36:51.750Z,97734.91
2023-05-14T19:39:56.264Z,97738.22
2023-05-14T19:42:59.641Z,97741.06
2023-05-14T19:46:03.868Z,97734.41
2023-05-14T19:49:07.706Z,97727.81
2023-05-14T19:52:11.485Z,97723.28
2023-05-14T19:55:16.234Z,97729.00
2023-05-14T19:58:19.346Z,97724.94
2023-05-14T20:01:22.828Z,97727.69
2023-05-14T20:04:26.094Z,97737.19
2023-05-14T20:07:29.392Z,97743.69
2023-05-14T20:10:33.940Z,97744.63
2023-05-14T20:13:37.434Z,97751.63
2023-05-14T20:16:41.628Z,97758.81
2023-05-14T20:19:44.972Z,97760.91
2023-05-14T20:22:48.118Z,97760.56
2023-05-14T20:25:53.083Z,97769.94
2023-05-14T20:28:56.295Z,97757.97
2023-05-14T20:31:59.517Z,97762.19
2023-05-14T20:35:02.914Z,97760.84
2023-05-14T20:38:07.141Z,97755.72
2023-05-14T20:41:12.057Z,97753.44
2023-05-14T20:44:15.503Z,97741.16
2023-05-14T20:47:21.420Z,97737.72
2023-05-14T20:50:26.946Z,97730.63
2023-05-14T20:53:30.432Z,97726.81
2023-05-14T20:56:36.398Z,97730.56
2023-05-14T20:59:39.576Z,97725.72
2023-05-14T21:02:42.812Z,97725.38
2023-05-14T21:05:46.166Z,97733.19
2023-05-14T21:08:49.322Z,97720.06
2023-05-14T21:11:53.886Z,97728.59
2023-05-14T21:14:57.202Z,97730.00
2023-05-14T21:18:01.245Z,97727.72
2023-05-14T21:21:05.420Z,97734.00
2023-05-14T21:24:09.051Z,97733.38
2023-05-14T21:27:14.130Z,97744.66
2023-05-14T21:30:17.385Z,97745.59
2023-05-14T21:34:39.127Z,97750.09
2023-05-14T21:37:42.422Z,97739.38
2023-05-14T21:40:45.561Z,97744.41
2023-05-14T21:43:48.970Z,97727.47
2023-05-14T21:46:52.240Z,97730.66
2023-05-14T21:49:56.762Z,97725.28
2023-05-14T21:53:00.018Z,97723.63
2023-05-14T21:56:03.317Z,97715.44
2023-05-14T21:59:11.053Z,97719.03
2023-05-14T22:02:14.443Z,97727.56
2023-05-14T22:05:19.243Z,97721.00
2023-05-14T22:08:25.298Z,97723.59
2023-05-14T22:11:28.373Z,97732.03
2023-05-14T22:14:31.524Z,97736.91
2023-05-14T22:17:35.069Z,97733.03
2023-05-14T22:20:39.934Z,97738.00
2023-05-14T22:23:43.069Z,97735.72
2023-05-14T22:26:46.182Z,97727.72
2023-05-14T22:29:49.276Z,97730.88
2023-05-14T22:32:52.372Z,97724.00
2023-05-14T22:35:56.943Z,97709.59
2023-05-14T22:39:00.921Z,97711.91
2023-05-14T22:42:04.393Z,97717.00
2023-05-14T22:45:08.767Z,97715.31
2023-05-14T22:48:11.993Z,97703.84
2023-05-14T22:51:16.617Z,97706.25
2023-05-14T22:54:19.742Z,97703.75
2023-05-14T22:57:22.977Z,97638.91
2023-05-14T23:00:26.164Z,97703.63
2023-05-14T23:03:29.630Z,97706.47
2023-05-14T23:06:34.154Z,97692.22
2023-05-14T23:09:37.431Z,97691.53
2023-05-14T23:12:40.547Z,97690.03
2023-05-14T23:15:44.783Z,97688.06
2023-05-14T23:18:48.099Z,97700.09
2023-05-14T23:21:52.700Z,97691.31
2023-05-14T23:24:55.894Z,97660.09
2023-05-14T23:27:59.125Z,97691.09
2023-05-14T23:31:02.428Z,97690.84
2023-05-14T23:34:05.575Z,97694.25
2023-05-14T23:37:10.110Z,97623.22
2023-05-14T23:40:13.657Z,97676.13
2023-05-14T23:43:17.023Z,97677.44
2023-05-14T23:46:20.248Z,97674.75
2023-05-14T23:49:23.529Z,97671.72
2023-05-14T23:52:28.063Z,97673.81
2023-05-14T23:55:31.400Z,97670.78
2023-05-14T23:58:34.511Z,97664.50
